sensor_id;sensor_type;location;lat;lon;timestamp;temperature;humidity
13944;DHT22;7044;53.286;8.534;2022-07-23T00:00:07;16.00;99.90
13944;DHT22;7044;53.286;8.534;2022-07-23T00:02:35;16.20;99.90
13944;DHT22;7044;53.286;8.534;2022-07-23T00:05:02;16.20;99.90
13944;DHT22;7044;53.286;8.534;2022-07-23T00:07:29;16.00;99.90
13944;DHT22;7044;53.286;8.534;2022-07-23T00:09:56;16.10;99.90
13944;DHT22;7044;53.286;8.534;2022-07-23T00:12:23;16.10;99.90
13944;DHT22;7044;53.286;8.534;2022-07-23T00:14:51;16.00;99.90
13944;DHT22;7044;53.286;8.534;2022-07-23T00:17:18;16.00;99.90
13944;DHT22;7044;53.286;8.534;2022-07-23T00:19:45;16.00;99.90
13944;DHT22;7044;53.286;8.534;2022-07-23T00:22:11;16.00;99.90
13944;DHT22;7044;53.286;8.534;2022-07-23T00:24:38;15.60;99.90
13944;DHT22;7044;53.286;8.534;2022-07-23T00:27:05;16.00;99.90
13944;DHT22;7044;53.286;8.534;2022-07-23T00:29:32;16.10;99.90
13944;DHT22;7044;53.286;8.534;2022-07-23T00:32:00;16.00;99.90
13944;DHT22;7044;53.286;8.534;2022-07-23T00:34:27;16.00;99.90
13944;DHT22;7044;53.286;8.534;2022-07-23T00:36:53;16.00;99.90
13944;DHT22;7044;53.286;8.534;2022-07-23T00:39:20;16.10;99.90
13944;DHT22;7044;53.286;8.534;2022-07-23T00:41:48;16.60;99.90
13944;DHT22;7044;53.286;8.534;2022-07-23T00:44:17;16.10;99.90
13944;DHT22;7044;53.286;8.534;2022-07-23T00:46:45;16.00;99.90
13944;DHT22;7044;53.286;8.534;2022-07-23T00:49:14;16.00;99.90
13944;DHT22;7044;53.286;8.534;2022-07-23T00:51:41;16.00;99.90
13944;DHT22;7044;53.286;8.534;2022-07-23T00:56:35;15.90;99.90
13944;DHT22;7044;53.286;8.534;2022-07-23T00:59:02;16.00;99.90
13944;DHT22;7044;53.286;8.534;2022-07-23T01:01:29;15.90;99.90
13944;DHT22;7044;53.286;8.534;2022-07-23T01:03:56;16.00;99.90
13944;DHT22;7044;53.286;8.534;2022-07-23T01:06:24;15.70;99.90
13944;DHT22;7044;53.286;8.534;2022-07-23T01:08:51;15.90;99.90
13944;DHT22;7044;53.286;8.534;2022-07-23T01:11:18;16.10;99.90
13944;DHT22;7044;53.286;8.534;2022-07-23T01:13:45;15.90;99.90
13944;DHT22;7044;53.286;8.534;2022-07-23T01:16:12;16.00;99.90
13944;DHT22;7044;53.286;8.534;2022-07-23T01:18:39;15.80;99.90
13944;DHT22;7044;53.286;8.534;2022-07-23T01:21:06;16.00;99.90
13944;DHT22;7044;53.286;8.534;2022-07-23T01:23:34;15.90;99.90
13944;DHT22;7044;53.286;8.534;2022-07-23T01:26:01;15.90;99.90
13944;DHT22;7044;53.286;8.534;2022-07-23T01:28:28;15.90;99.90
13944;DHT22;7044;53.286;8.534;2022-07-23T01:30:54;16.00;99.90
13944;DHT22;7044;53.286;8.534;2022-07-23T01:33:21;16.00;99.90
13944;DHT22;7044;53.286;8.534;2022-07-23T01:35:48;16.10;99.90
13944;DHT22;7044;53.286;8.534;2022-07-23T01:38:15;15.90;99.90
13944;DHT22;7044;53.286;8.534;2022-07-23T01:40:43;15.90;99.90
13944;DHT22;7044;53.286;8.534;2022-07-23T01:43:10;15.90;99.90
13944;DHT22;7044;53.286;8.534;2022-07-23T01:45:37;15.90;99.90
13944;DHT22;7044;53.286;8.534;2022-07-23T01:48:04;15.90;99.90
13944;DHT22;7044;53.286;8.534;2022-07-23T01:50:31;15.90;99.90
13944;DHT22;7044;53.286;8.534;2022-07-23T01:52:58;15.80;99.90
13944;DHT22;7044;53.286;8.534;2022-07-23T01:55:25;15.90;99.90
13944;DHT22;7044;53.286;8.534;2022-07-23T01:57:53;16.00;99.90
13944;DHT22;7044;53.286;8.534;2022-07-23T02:00:20;16.00;99.90
13944;DHT22;7044;53.286;8.534;2022-07-23T02:02:46;15.80;99.90
13944;DHT22;7044;53.286;8.534;2022-07-23T02:05:13;15.60;99.90
13944;DHT22;7044;53.286;8.534;2022-07-23T02:07:40;15.80;99.90
13944;DHT22;7044;53.286;8.534;2022-07-23T02:10:08;15.80;99.90
13944;DHT22;7044;53.286;8.534;2022-07-23T02:12:35;16.10;99.90
13944;DHT22;7044;53.286;8.534;2022-07-23T02:15:04;14.70;99.90
13944;DHT22;7044;53.286;8.534;2022-07-23T02:17:31;15.90;99.90
13944;DHT22;7044;53.286;8.534;2022-07-23T02:19:57;15.90;99.90
13944;DHT22;7044;53.286;8.534;2022-07-23T02:22:24;15.80;99.90
13944;DHT22;7044;53.286;8.534;2022-07-23T02:24:51;19.10;99.90
13944;DHT22;7044;53.286;8.534;2022-07-23T02:27:18;15.90;99.90
13944;DHT22;7044;53.286;8.534;2022-07-23T02:29:44;15.70;99.90
13944;DHT22;7044;53.286;8.534;2022-07-23T02:32:13;15.90;99.90
13944;DHT22;7044;53.286;8.534;2022-07-23T02:34:39;16.10;99.90
13944;DHT22;7044;53.286;8.534;2022-07-23T02:37:06;16.00;99.90
13944;DHT22;7044;53.286;8.534;2022-07-23T02:42:01;16.00;99.90
13944;DHT22;7044;53.286;8.534;2022-07-23T02:44:28;15.90;99.90
13944;DHT22;7044;53.286;8.534;2022-07-23T02:46:55;15.90;99.90
13944;DHT22;7044;53.286;8.534;2022-07-23T02:49:23;15.90;99.90
13944;DHT22;7044;53.286;8.534;2022-07-23T02:54:17;15.80;61.80
13944;DHT22;7044;53.286;8.534;2022-07-23T02:56:44;15.90;61.80
13944;DHT22;7044;53.286;8.534;2022-07-23T02:59:11;15.90;59.20
13944;DHT22;7044;53.286;8.534;2022-07-23T03:04:05;16.00;55.40
13944;DHT22;7044;53.286;8.534;2022-07-23T03:06:33;15.80;53.30
13944;DHT22;7044;53.286;8.534;2022-07-23T03:09:00;15.80;52.60
13944;DHT22;7044;53.286;8.534;2022-07-23T03:11:27;16.00;53.20
13944;DHT22;7044;53.286;8.534;2022-07-23T03:13:53;15.80;51.00
13944;DHT22;7044;53.286;8.534;2022-07-23T03:16:20;15.80;51.50
13944;DHT22;7044;53.286;8.534;2022-07-23T03:18:47;15.80;49.60
13944;DHT22;7044;53.286;8.534;2022-07-23T03:21:14;15.80;50.50
13944;DHT22;7044;53.286;8.534;2022-07-23T03:23:42;15.90;55.60
13944;DHT22;7044;53.286;8.534;2022-07-23T03:26:09;15.80;51.60
13944;DHT22;7044;53.286;8.534;2022-07-23T03:28:36;15.90;55.40
13944;DHT22;7044;53.286;8.534;2022-07-23T03:31:02;15.70;53.10
13944;DHT22;7044;53.286;8.534;2022-07-23T03:33:29;15.80;54.30
13944;DHT22;7044;53.286;8.534;2022-07-23T03:35:56;15.70;48.50
13944;DHT22;7044;53.286;8.534;2022-07-23T03:38:23;16.00;53.20
13944;DHT22;7044;53.286;8.534;2022-07-23T03:40:51;15.60;53.00
13944;DHT22;7044;53.286;8.534;2022-07-23T03:43:18;15.70;51.00
13944;DHT22;7044;53.286;8.534;2022-07-23T03:45:44;15.80;57.70
13944;DHT22;7044;53.286;8.534;2022-07-23T03:48:11;15.80;56.90
13944;DHT22;7044;53.286;8.534;2022-07-23T03:50:39;15.80;61.30
13944;DHT22;7044;53.286;8.534;2022-07-23T03:53:06;15.70;63.40
13944;DHT22;7044;53.286;8.534;2022-07-23T03:55:33;15.80;61.10
13944;DHT22;7044;53.286;8.534;2022-07-23T03:58:01;15.70;60.70
13944;DHT22;7044;53.286;8.534;2022-07-23T04:00:28;16.80;64.60
13944;DHT22;7044;53.286;8.534;2022-07-23T04:02:54;15.80;67.60
13944;DHT22;7044;53.286;8.534;2022-07-23T04:05:21;16.10;66.10
13944;DHT22;7044;53.286;8.534;2022-07-23T04:07:48;15.80;63.30
13944;DHT22;7044;53.286;8.534;2022-07-23T04:10:15;15.60;67.80
13944;DHT22;7044;53.286;8.534;2022-07-23T04:12:42;15.80;65.50
13944;DHT22;7044;53.286;8.534;2022-07-23T04:15:10;15.80;67.20
13944;DHT22;7044;53.286;8.534;2022-07-23T04:17:37;15.70;66.40
13944;DHT22;7044;53.286;8.534;2022-07-23T04:20:04;15.70;69.30
13944;DHT22;7044;53.286;8.534;2022-07-23T04:22:31;15.80;72.30
13944;DHT22;7044;53.286;8.534;2022-07-23T04:24:58;15.70;68.60
13944;DHT22;7044;53.286;8.534;2022-07-23T04:27:25;15.70;70.00
13944;DHT22;7044;53.286;8.534;2022-07-23T04:29:51;15.70;74.60
13944;DHT22;7044;53.286;8.534;2022-07-23T04:32:20;15.60;76.00
13944;DHT22;7044;53.286;8.534;2022-07-23T04:34:47;15.70;76.20
13944;DHT22;7044;53.286;8.534;2022-07-23T04:37:13;15.70;76.10
13944;DHT22;7044;53.286;8.534;2022-07-23T04:39:40;15.70;78.40
13944;DHT22;7044;53.286;8.534;2022-07-23T04:42:07;15.70;79.50
13944;DHT22;7044;53.286;8.534;2022-07-23T04:44:34;15.70;79.60
13944;DHT22;7044;53.286;8.534;2022-07-23T04:47:01;15.70;79.20
13944;DHT22;7044;53.286;8.534;2022-07-23T04:49:29;15.70;81.60
13944;DHT22;7044;53.286;8.534;2022-07-23T04:51:55;15.70;80.20
13944;DHT22;7044;53.286;8.534;2022-07-23T04:54:22;15.70;80.20
13944;DHT22;7044;53.286;8.534;2022-07-23T04:56:49;15.70;75.90
13944;DHT22;7044;53.286;8.534;2022-07-23T04:59:16;15.60;75.00
13944;DHT22;7044;53.286;8.534;2022-07-23T05:01:43;16.10;75.80
13944;DHT22;7044;53.286;8.534;2022-07-23T05:04:09;15.70;71.70
13944;DHT22;7044;53.286;8.534;2022-07-23T05:06:37;15.80;70.80
13944;DHT22;7044;53.286;8.534;2022-07-23T05:09:04;15.70;65.50
13944;DHT22;7044;53.286;8.534;2022-07-23T05:11:31;15.30;59.80
13944;DHT22;7044;53.286;8.534;2022-07-23T05:13:58;15.60;54.70
13944;DHT22;7044;53.286;8.534;2022-07-23T05:16:24;15.80;52.20
13944;DHT22;7044;53.286;8.534;2022-07-23T05:18:51;15.80;39.80
13944;DHT22;7044;53.286;8.534;2022-07-23T05:21:19;15.80;38.10
13944;DHT22;7044;53.286;8.534;2022-07-23T05:23:47;15.80;28.70
13944;DHT22;7044;53.286;8.534;2022-07-23T05:26:14;15.80;30.00
13944;DHT22;7044;53.286;8.534;2022-07-23T05:28:41;15.90;31.20
13944;DHT22;7044;53.286;8.534;2022-07-23T05:31:08;15.90;26.20
13944;DHT22;7044;53.286;8.534;2022-07-23T05:36:02;16.00;28.60
13944;DHT22;7044;53.286;8.534;2022-07-23T05:38:30;16.00;27.50
13944;DHT22;7044;53.286;8.534;2022-07-23T05:40:59;16.10;17.00
13944;DHT22;7044;53.286;8.534;2022-07-23T05:43:26;16.10;16.30
13944;DHT22;7044;53.286;8.534;2022-07-23T05:48:21;16.10;7.70
13944;DHT22;7044;53.286;8.534;2022-07-23T05:50:48;16.10;1.00
13944;DHT22;7044;53.286;8.534;2022-07-23T05:53:15;16.10;1.00
13944;DHT22;7044;53.286;8.534;2022-07-23T05:55:42;16.10;1.00
13944;DHT22;7044;53.286;8.534;2022-07-23T05:58:10;16.20;1.00
13944;DHT22;7044;53.286;8.534;2022-07-23T06:00:37;15.40;1.00
13944;DHT22;7044;53.286;8.534;2022-07-23T06:03:05;16.20;1.00
13944;DHT22;7044;53.286;8.534;2022-07-23T06:05:32;16.20;1.00
13944;DHT22;7044;53.286;8.534;2022-07-23T06:08:00;16.30;1.00
13944;DHT22;7044;53.286;8.534;2022-07-23T06:10:27;12.90;1.00
13944;DHT22;7044;53.286;8.534;2022-07-23T06:12:54;16.20;1.00
13944;DHT22;7044;53.286;8.534;2022-07-23T06:15:23;16.40;1.00
13944;DHT22;7044;53.286;8.534;2022-07-23T06:17:50;16.20;1.00
13944;DHT22;7044;53.286;8.534;2022-07-23T06:20:16;19.60;1.00
13944;DHT22;7044;53.286;8.534;2022-07-23T06:22:43;16.40;1.00
13944;DHT22;7044;53.286;8.534;2022-07-23T06:25:10;17.30;1.00
13944;DHT22;7044;53.286;8.534;2022-07-23T06:27:37;16.40;1.00
13944;DHT22;7044;53.286;8.534;2022-07-23T06:30:04;16.50;1.00
13944;DHT22;7044;53.286;8.534;2022-07-23T06:32:35;16.60;1.00
13944;DHT22;7044;53.286;8.534;2022-07-23T06:35:01;16.60;1.00
13944;DHT22;7044;53.286;8.534;2022-07-23T06:37:28;16.70;1.00
13944;DHT22;7044;53.286;8.534;2022-07-23T06:39:55;16.70;1.00
13944;DHT22;7044;53.286;8.534;2022-07-23T06:44:49;16.70;1.00
13944;DHT22;7044;53.286;8.534;2022-07-23T06:47:16;17.10;1.00
13944;DHT22;7044;53.286;8.534;2022-07-23T06:49:44;16.60;1.00
13944;DHT22;7044;53.286;8.534;2022-07-23T06:52:11;16.60;1.00
13944;DHT22;7044;53.286;8.534;2022-07-23T06:54:38;16.70;1.00
13944;DHT22;7044;53.286;8.534;2022-07-23T06:57:05;20.40;1.00
13944;DHT22;7044;53.286;8.534;2022-07-23T06:59:32;15.20;1.00
13944;DHT22;7044;53.286;8.534;2022-07-23T07:04:29;16.60;1.00
13944;DHT22;7044;53.286;8.534;2022-07-23T07:07:01;15.10;1.00
13944;DHT22;7044;53.286;8.534;2022-07-23T07:09:29;16.70;1.00
13944;DHT22;7044;53.286;8.534;2022-07-23T07:14:23;16.80;1.00
13944;DHT22;7044;53.286;8.534;2022-07-23T07:16:50;16.80;1.00
13944;DHT22;7044;53.286;8.534;2022-07-23T07:19:17;16.80;1.00
13944;DHT22;7044;53.286;8.534;2022-07-23T07:21:43;17.90;1.00
13944;DHT22;7044;53.286;8.534;2022-07-23T07:24:12;16.80;1.00
13944;DHT22;7044;53.286;8.534;2022-07-23T07:26:39;16.80;1.00
13944;DHT22;7044;53.286;8.534;2022-07-23T07:29:06;16.90;1.00
13944;DHT22;7044;53.286;8.534;2022-07-23T07:31:32;17.60;1.00
13944;DHT22;7044;53.286;8.534;2022-07-23T07:33:59;17.10;1.00
13944;DHT22;7044;53.286;8.534;2022-07-23T07:36:26;16.90;1.00
13944;DHT22;7044;53.286;8.534;2022-07-23T07:38:53;15.20;1.00
13944;DHT22;7044;53.286;8.534;2022-07-23T07:41:21;16.80;1.00
13944;DHT22;7044;53.286;8.534;2022-07-23T07:43:49;17.00;1.00
13944;DHT22;7044;53.286;8.534;2022-07-23T07:46:16;17.20;1.00
13944;DHT22;7044;53.286;8.534;2022-07-23T07:48:43;16.80;1.00
13944;DHT22;7044;53.286;8.534;2022-07-23T07:53:37;14.20;1.00
13944;DHT22;7044;53.286;8.534;2022-07-23T07:56:04;17.00;1.00
13944;DHT22;7044;53.286;8.534;2022-07-23T07:58:33;17.10;1.00
13944;DHT22;7044;53.286;8.534;2022-07-23T08:01:00;17.00;1.00
13944;DHT22;7044;53.286;8.534;2022-07-23T08:03:27;17.00;1.00
13944;DHT22;7044;53.286;8.534;2022-07-23T08:05:54;17.10;1.00
13944;DHT22;7044;53.286;8.534;2022-07-23T08:08:21;17.80;1.00
13944;DHT22;7044;53.286;8.534;2022-07-23T08:10:48;17.20;1.00
13944;DHT22;7044;53.286;8.534;2022-07-23T08:13:16;17.10;1.00
13944;DHT22;7044;53.286;8.534;2022-07-23T08:15:44;17.60;1.00
13944;DHT22;7044;53.286;8.534;2022-07-23T08:18:11;18.40;1.00
13944;DHT22;7044;53.286;8.534;2022-07-23T08:20:38;17.30;1.00
13944;DHT22;7044;53.286;8.534;2022-07-23T08:23:06;17.40;1.00
13944;DHT22;7044;53.286;8.534;2022-07-23T08:25:35;17.30;1.00
13944;DHT22;7044;53.286;8.534;2022-07-23T08:28:04;17.40;99.90
13944;DHT22;7044;53.286;8.534;2022-07-23T08:33:02;17.30;99.90
13944;DHT22;7044;53.286;8.534;2022-07-23T08:35:31;17.40;99.90
13944;DHT22;7044;53.286;8.534;2022-07-23T08:37:59;17.40;99.90
13944;DHT22;7044;53.286;8.534;2022-07-23T08:40:27;17.60;99.90
13944;DHT22;7044;53.286;8.534;2022-07-23T08:45:23;17.70;99.90
13944;DHT22;7044;53.286;8.534;2022-07-23T08:47:51;17.70;99.90
13944;DHT22;7044;53.286;8.534;2022-07-23T08:50:20;17.00;91.90
13944;DHT22;7044;53.286;8.534;2022-07-23T08:52:49;18.10;99.90
13944;DHT22;7044;53.286;8.534;2022-07-23T08:55:17;17.50;1.00
13944;DHT22;7044;53.286;8.534;2022-07-23T08:57:44;17.50;1.00
13944;DHT22;7044;53.286;8.534;2022-07-23T09:00:11;17.60;96.00
13944;DHT22;7044;53.286;8.534;2022-07-23T09:02:42;17.70;99.90
13944;DHT22;7044;53.286;8.534;2022-07-23T09:05:10;17.70;99.90
13944;DHT22;7044;53.286;8.534;2022-07-23T09:08:10;17.80;99.90
13944;DHT22;7044;53.286;8.534;2022-07-23T09:10:49;18.00;99.90
13944;DHT22;7044;53.286;8.534;2022-07-23T09:13:27;18.00;1.00
13944;DHT22;7044;53.286;8.534;2022-07-23T09:15:57;17.80;1.00
13944;DHT22;7044;53.286;8.534;2022-07-23T09:18:39;17.90;1.00
13944;DHT22;7044;53.286;8.534;2022-07-23T09:21:21;17.90;99.90
13944;DHT22;7044;53.286;8.534;2022-07-23T09:23:56;17.90;99.90
13944;DHT22;7044;53.286;8.534;2022-07-23T09:26:29;17.90;99.90
13944;DHT22;7044;53.286;8.534;2022-07-23T09:29:08;17.80;1.00
13944;DHT22;7044;53.286;8.534;2022-07-23T09:31:43;17.80;1.00
13944;DHT22;7044;53.286;8.534;2022-07-23T09:34:16;17.80;1.00
13944;DHT22;7044;53.286;8.534;2022-07-23T09:36:44;17.90;1.00
13944;DHT22;7044;53.286;8.534;2022-07-23T09:39:13;17.80;1.00
13944;DHT22;7044;53.286;8.534;2022-07-23T09:41:42;16.30;1.00
13944;DHT22;7044;53.286;8.534;2022-07-23T09:44:13;15.40;1.00
13944;DHT22;7044;53.286;8.534;2022-07-23T09:46:40;17.60;1.00
13944;DHT22;7044;53.286;8.534;2022-07-23T09:49:19;17.70;99.90
13944;DHT22;7044;53.286;8.534;2022-07-23T09:51:52;17.70;99.90
13944;DHT22;7044;53.286;8.534;2022-07-23T09:54:27;17.60;1.00
13944;DHT22;7044;53.286;8.534;2022-07-23T09:56:57;17.50;99.90
13944;DHT22;7044;53.286;8.534;2022-07-23T09:59:27;17.40;99.90
13944;DHT22;7044;53.286;8.534;2022-07-23T10:01:55;17.40;99.90
13944;DHT22;7044;53.286;8.534;2022-07-23T10:04:24;17.20;99.90
13944;DHT22;7044;53.286;8.534;2022-07-23T10:06:53;17.30;99.90
13944;DHT22;7044;53.286;8.534;2022-07-23T10:09:27;17.30;99.90
13944;DHT22;7044;53.286;8.534;2022-07-23T10:11:56;17.20;99.90
13944;DHT22;7044;53.286;8.534;2022-07-23T10:14:41;17.00;99.90
13944;DHT22;7044;53.286;8.534;2022-07-23T10:17:09;17.20;99.90
13944;DHT22;7044;53.286;8.534;2022-07-23T10:19:36;17.50;99.90
13944;DHT22;7044;53.286;8.534;2022-07-23T10:22:06;17.30;99.90
13944;DHT22;7044;53.286;8.534;2022-07-23T10:25:04;17.90;99.90
13944;DHT22;7044;53.286;8.534;2022-07-23T10:27:53;17.50;99.90
13944;DHT22;7044;53.286;8.534;2022-07-23T10:30:30;17.50;99.90
13944;DHT22;7044;53.286;8.534;2022-07-23T10:33:10;17.30;99.90
13944;DHT22;7044;53.286;8.534;2022-07-23T10:35:47;17.70;99.90
13944;DHT22;7044;53.286;8.534;2022-07-23T10:38:20;18.10;94.30
13944;DHT22;7044;53.286;8.534;2022-07-23T10:40:58;18.00;1.00
13944;DHT22;7044;53.286;8.534;2022-07-23T10:43:25;18.10;1.00
13944;DHT22;7044;53.286;8.534;2022-07-23T10:45:53;18.20;99.90
13944;DHT22;7044;53.286;8.534;2022-07-23T10:48:21;18.50;1.00
13944;DHT22;7044;53.286;8.534;2022-07-23T10:51:09;18.60;1.00
13944;DHT22;7044;53.286;8.534;2022-07-23T10:53:56;18.70;1.00
13944;DHT22;7044;53.286;8.534;2022-07-23T10:57:05;18.70;1.00
13944;DHT22;7044;53.286;8.534;2022-07-23T11:00:09;18.70;99.90
13944;DHT22;7044;53.286;8.534;2022-07-23T11:02:39;18.40;1.00
13944;DHT22;7044;53.286;8.534;2022-07-23T11:05:08;18.40;1.00
13944;DHT22;7044;53.286;8.534;2022-07-23T11:07:36;18.30;99.90
13944;DHT22;7044;53.286;8.534;2022-07-23T11:10:03;18.30;1.00
13944;DHT22;7044;53.286;8.534;2022-07-23T11:12:37;17.60;1.00
13944;DHT22;7044;53.286;8.534;2022-07-23T11:15:07;18.30;1.00
13944;DHT22;7044;53.286;8.534;2022-07-23T11:17:36;18.30;1.00
13944;DHT22;7044;53.286;8.534;2022-07-23T11:20:20;18.70;99.90
13944;DHT22;7044;53.286;8.534;2022-07-23T11:22:50;18.70;1.00
13944;DHT22;7044;53.286;8.534;2022-07-23T11:25:32;18.70;1.00
13944;DHT22;7044;53.286;8.534;2022-07-23T11:28:13;18.70;20.40
13944;DHT22;7044;53.286;8.534;2022-07-23T11:30:42;18.80;99.90
13944;DHT22;7044;53.286;8.534;2022-07-23T11:33:17;18.90;1.00
13944;DHT22;7044;53.286;8.534;2022-07-23T11:38:15;18.90;99.90
13944;DHT22;7044;53.286;8.534;2022-07-23T11:40:45;18.70;1.00
13944;DHT22;7044;53.286;8.534;2022-07-23T11:43:14;18.70;79.50
13944;DHT22;7044;53.286;8.534;2022-07-23T11:45:42;18.50;99.90
13944;DHT22;7044;53.286;8.534;2022-07-23T11:48:15;18.50;99.10
13944;DHT22;7044;53.286;8.534;2022-07-23T11:50:42;18.50;99.90
13944;DHT22;7044;53.286;8.534;2022-07-23T11:53:09;18.50;1.00
13944;DHT22;7044;53.286;8.534;2022-07-23T11:55:36;18.60;1.00
13944;DHT22;7044;53.286;8.534;2022-07-23T11:58:03;18.80;99.90
13944;DHT22;7044;53.286;8.534;2022-07-23T12:00:32;18.80;99.90
13944;DHT22;7044;53.286;8.534;2022-07-23T12:03:00;19.00;99.90
13944;DHT22;7044;53.286;8.534;2022-07-23T12:05:29;19.10;10.80
13944;DHT22;7044;53.286;8.534;2022-07-23T12:07:57;19.00;99.90
13944;DHT22;7044;53.286;8.534;2022-07-23T12:10:26;18.90;99.90
13944;DHT22;7044;53.286;8.534;2022-07-23T12:12:55;18.80;1.00
13944;DHT22;7044;53.286;8.534;2022-07-23T12:15:24;18.80;1.00
13944;DHT22;7044;53.286;8.534;2022-07-23T12:17:53;18.80;1.00
13944;DHT22;7044;53.286;8.534;2022-07-23T12:20:22;19.00;99.90
13944;DHT22;7044;53.286;8.534;2022-07-23T12:22:52;19.80;99.90
13944;DHT22;7044;53.286;8.534;2022-07-23T12:25:20;19.20;99.90
13944;DHT22;7044;53.286;8.534;2022-07-23T12:27:59;19.40;1.00
13944;DHT22;7044;53.286;8.534;2022-07-23T12:30:28;19.40;1.00
13944;DHT22;7044;53.286;8.534;2022-07-23T12:32:57;19.40;99.90
13944;DHT22;7044;53.286;8.534;2022-07-23T12:35:31;19.50;1.00
13944;DHT22;7044;53.286;8.534;2022-07-23T12:38:00;19.60;1.00
13944;DHT22;7044;53.286;8.534;2022-07-23T12:40:29;16.40;88.00
13944;DHT22;7044;53.286;8.534;2022-07-23T12:42:58;19.60;13.90
13944;DHT22;7044;53.286;8.534;2022-07-23T12:45:26;19.50;99.90
13944;DHT22;7044;53.286;8.534;2022-07-23T12:48:00;19.50;99.90
13944;DHT22;7044;53.286;8.534;2022-07-23T12:50:41;19.50;47.00
13944;DHT22;7044;53.286;8.534;2022-07-23T12:53:11;19.50;1.00
13944;DHT22;7044;53.286;8.534;2022-07-23T12:55:39;19.50;1.00
13944;DHT22;7044;53.286;8.534;2022-07-23T12:58:08;19.30;99.90
13944;DHT22;7044;53.286;8.534;2022-07-23T13:00:58;19.40;1.00
13944;DHT22;7044;53.286;8.534;2022-07-23T13:05:56;19.30;99.90
13944;DHT22;7044;53.286;8.534;2022-07-23T13:08:24;19.50;1.00
13944;DHT22;7044;53.286;8.534;2022-07-23T13:13:21;19.30;99.90
13944;DHT22;7044;53.286;8.534;2022-07-23T13:15:48;19.10;1.00
13944;DHT22;7044;53.286;8.534;2022-07-23T13:18:15;19.20;1.00
13944;DHT22;7044;53.286;8.534;2022-07-23T13:20:45;19.10;1.00
13944;DHT22;7044;53.286;8.534;2022-07-23T13:23:13;19.10;1.00
13944;DHT22;7044;53.286;8.534;2022-07-23T13:25:41;19.30;1.00
13944;DHT22;7044;53.286;8.534;2022-07-23T13:28:08;19.50;1.00
13944;DHT22;7044;53.286;8.534;2022-07-23T13:30:35;19.50;99.90
13944;DHT22;7044;53.286;8.534;2022-07-23T13:33:03;16.10;1.00
13944;DHT22;7044;53.286;8.534;2022-07-23T13:35:30;19.50;1.00
13944;DHT22;7044;53.286;8.534;2022-07-23T13:37:58;19.50;1.00
13944;DHT22;7044;53.286;8.534;2022-07-23T13:40:25;19.40;1.00
13944;DHT22;7044;53.286;8.534;2022-07-23T13:42:52;19.40;1.00
13944;DHT22;7044;53.286;8.534;2022-07-23T13:45:19;19.50;1.00
13944;DHT22;7044;53.286;8.534;2022-07-23T13:47:46;19.40;99.90
13944;DHT22;7044;53.286;8.534;2022-07-23T13:50:13;19.50;99.90
13944;DHT22;7044;53.286;8.534;2022-07-23T13:52:41;19.50;99.90
13944;DHT22;7044;53.286;8.534;2022-07-23T13:57:38;19.80;1.00
13944;DHT22;7044;53.286;8.534;2022-07-23T14:00:06;19.90;1.00
13944;DHT22;7044;53.286;8.534;2022-07-23T14:02:35;19.80;26.20
13944;DHT22;7044;53.286;8.534;2022-07-23T14:05:04;19.70;99.90
13944;DHT22;7044;53.286;8.534;2022-07-23T14:07:31;19.80;1.00
13944;DHT22;7044;53.286;8.534;2022-07-23T14:09:58;19.80;99.90
13944;DHT22;7044;53.286;8.534;2022-07-23T14:12:26;19.80;99.90
13944;DHT22;7044;53.286;8.534;2022-07-23T14:14:53;19.70;1.00
13944;DHT22;7044;53.286;8.534;2022-07-23T14:17:20;19.60;1.00
13944;DHT22;7044;53.286;8.534;2022-07-23T14:19:47;19.60;1.00
13944;DHT22;7044;53.286;8.534;2022-07-23T14:22:13;19.50;99.90
13944;DHT22;7044;53.286;8.534;2022-07-23T14:24:41;19.60;99.90
13944;DHT22;7044;53.286;8.534;2022-07-23T14:27:08;19.70;1.00
13944;DHT22;7044;53.286;8.534;2022-07-23T14:29:36;19.80;1.00
13944;DHT22;7044;53.286;8.534;2022-07-23T14:32:03;19.50;1.00
13944;DHT22;7044;53.286;8.534;2022-07-23T14:34:34;19.80;1.00
13944;DHT22;7044;53.286;8.534;2022-07-23T14:37:01;19.60;1.00
13944;DHT22;7044;53.286;8.534;2022-07-23T14:41:56;19.80;1.00
13944;DHT22;7044;53.286;8.534;2022-07-23T14:44:23;19.60;1.00
13944;DHT22;7044;53.286;8.534;2022-07-23T14:46:51;19.60;1.00
13944;DHT22;7044;53.286;8.534;2022-07-23T14:51:46;19.40;1.00
13944;DHT22;7044;53.286;8.534;2022-07-23T14:54:13;19.60;1.00
13944;DHT22;7044;53.286;8.534;2022-07-23T14:56:40;19.60;1.00
13944;DHT22;7044;53.286;8.534;2022-07-23T14:59:08;19.90;1.00
13944;DHT22;7044;53.286;8.534;2022-07-23T15:01:35;19.80;1.00
13944;DHT22;7044;53.286;8.534;2022-07-23T15:04:03;19.80;1.00
13944;DHT22;7044;53.286;8.534;2022-07-23T15:06:33;19.70;1.00
13944;DHT22;7044;53.286;8.534;2022-07-23T15:09:00;18.90;1.00
13944;DHT22;7044;53.286;8.534;2022-07-23T15:11:27;19.70;1.00
13944;DHT22;7044;53.286;8.534;2022-07-23T15:13:57;18.30;1.00
13944;DHT22;7044;53.286;8.534;2022-07-23T15:16:24;19.80;1.00
13944;DHT22;7044;53.286;8.534;2022-07-23T15:18:51;19.90;1.00
13944;DHT22;7044;53.286;8.534;2022-07-23T15:21:19;20.10;1.00
13944;DHT22;7044;53.286;8.534;2022-07-23T15:23:46;20.10;1.00
13944;DHT22;7044;53.286;8.534;2022-07-23T15:26:13;20.00;1.00
13944;DHT22;7044;53.286;8.534;2022-07-23T15:28:41;20.10;1.00
13944;DHT22;7044;53.286;8.534;2022-07-23T15:31:08;20.50;1.00
13944;DHT22;7044;53.286;8.534;2022-07-23T15:33:35;19.90;99.90
13944;DHT22;7044;53.286;8.534;2022-07-23T15:36:02;20.00;1.00
13944;DHT22;7044;53.286;8.534;2022-07-23T15:38:30;21.40;99.90
13944;DHT22;7044;53.286;8.534;2022-07-23T15:40:57;20.00;99.90
13944;DHT22;7044;53.286;8.534;2022-07-23T15:43:25;20.00;99.90
13944;DHT22;7044;53.286;8.534;2022-07-23T15:48:19;20.10;99.90
13944;DHT22;7044;53.286;8.534;2022-07-23T15:50:47;20.10;99.90
13944;DHT22;7044;53.286;8.534;2022-07-23T15:53:14;20.20;99.90
13944;DHT22;7044;53.286;8.534;2022-07-23T15:55:42;20.20;99.90
13944;DHT22;7044;53.286;8.534;2022-07-23T15:58:10;20.10;99.90
13944;DHT22;7044;53.286;8.534;2022-07-23T16:00:37;20.10;99.90
13944;DHT22;7044;53.286;8.534;2022-07-23T16:03:04;20.10;99.90
13944;DHT22;7044;53.286;8.534;2022-07-23T16:05:31;20.10;99.90
13944;DHT22;7044;53.286;8.534;2022-07-23T16:07:58;20.20;99.90
13944;DHT22;7044;53.286;8.534;2022-07-23T16:10:25;20.10;99.90
13944;DHT22;7044;53.286;8.534;2022-07-23T16:12:53;20.10;99.90
13944;DHT22;7044;53.286;8.534;2022-07-23T16:15:21;20.10;99.90
13944;DHT22;7044;53.286;8.534;2022-07-23T16:17:48;20.00;99.90
13944;DHT22;7044;53.286;8.534;2022-07-23T16:20:16;20.00;99.90
13944;DHT22;7044;53.286;8.534;2022-07-23T16:22:43;20.10;99.90
13944;DHT22;7044;53.286;8.534;2022-07-23T16:25:10;20.10;99.90
13944;DHT22;7044;53.286;8.534;2022-07-23T16:27:38;20.20;99.90
13944;DHT22;7044;53.286;8.534;2022-07-23T16:30:09;20.20;99.90
13944;DHT22;7044;53.286;8.534;2022-07-23T16:32:36;20.10;99.90
13944;DHT22;7044;53.286;8.534;2022-07-23T16:35:04;20.00;99.90
13944;DHT22;7044;53.286;8.534;2022-07-23T16:39:58;20.30;99.90
13944;DHT22;7044;53.286;8.534;2022-07-23T16:42:25;20.20;99.90
13944;DHT22;7044;53.286;8.534;2022-07-23T16:44:53;20.20;99.90
13944;DHT22;7044;53.286;8.534;2022-07-23T16:47:22;20.10;99.90
13944;DHT22;7044;53.286;8.534;2022-07-23T16:49:49;20.20;99.90